地図

経路データ

SID SEASON NUMBER BASIN SUBBASIN NAME ISO_TIME NATURE LAT LON WMO_WIND WMO_PRES WMO_AGENCY TRACK_TYPE DIST2LAND LANDFALL IFLAG USA_AGENCY USA_ATCF_ID USA_LAT USA_LON USA_RECORD USA_STATUS USA_WIND USA_PRES USA_SSHS USA_R34_NE USA_R34_SE USA_R34_SW USA_R34_NW USA_R50_NE USA_R50_SE USA_R50_SW USA_R50_NW USA_R64_NE USA_R64_SE USA_R64_SW USA_R64_NW USA_POCI USA_ROCI USA_RMW USA_EYE TOKYO_LAT TOKYO_LON TOKYO_GRADE TOKYO_WIND TOKYO_PRES TOKYO_R50_DIR TOKYO_R50_LONG TOKYO_R50_SHORT TOKYO_R30_DIR TOKYO_R30_LONG TOKYO_R30_SHORT TOKYO_LAND CMA_LAT CMA_LON CMA_CAT CMA_WIND CMA_PRES HKO_LAT HKO_LON HKO_CAT HKO_WIND HKO_PRES NEWDELHI_LAT NEWDELHI_LON NEWDELHI_GRADE NEWDELHI_WIND NEWDELHI_PRES NEWDELHI_CI NEWDELHI_DP NEWDELHI_POCI REUNION_LAT REUNION_LON REUNION_TYPE REUNION_WIND REUNION_PRES REUNION_TNUM REUNION_CI REUNION_RMW REUNION_R34_NE REUNION_R34_SE REUNION_R34_SW REUNION_R34_NW REUNION_R50_NE REUNION_R50_SE REUNION_R50_SW REUNION_R50_NW REUNION_R64_NE REUNION_R64_SE REUNION_R64_SW REUNION_R64_NW BOM_LAT BOM_LON BOM_TYPE BOM_WIND BOM_PRES BOM_TNUM BOM_CI BOM_RMW BOM_R34_NE BOM_R34_SE BOM_R34_SW BOM_R34_NW BOM_R50_NE BOM_R50_SE BOM_R50_SW BOM_R50_NW BOM_R64_NE BOM_R64_SE BOM_R64_SW BOM_R64_NW BOM_ROCI BOM_POCI BOM_EYE BOM_POS_METHOD BOM_PRES_METHOD NADI_LAT NADI_LON NADI_CAT NADI_WIND NADI_PRES WELLINGTON_LAT WELLINGTON_LON WELLINGTON_WIND WELLINGTON_PRES DS824_LAT DS824_LON DS824_STAGE DS824_WIND DS824_PRES TD9636_LAT TD9636_LON TD9636_STAGE TD9636_WIND TD9636_PRES TD9635_LAT TD9635_LON TD9635_WIND TD9635_PRES TD9635_ROCI NEUMANN_LAT NEUMANN_LON NEUMANN_CLASS NEUMANN_WIND NEUMANN_PRES MLC_LAT MLC_LON MLC_CLASS MLC_WIND MLC_PRES USA_GUST BOM_GUST BOM_GUST_PER REUNION_GUST REUNION_GUST_PER USA_SEAHGT USA_SEARAD_NE USA_SEARAD_SE USA_SEARAD_SW USA_SEARAD_NW STORM_SPEED STORM_DIR
1988210N14251 1988 38 EP MM EMILIA 1988-07-27 18:00:00 TS 14.0000 -109.000 25 1012 hurdat_epa main 734 731 O_________O___ hurdat_epa EP051988 14.0000 -109.000 TD 25 1012 -1 14.0000 -109.000 1 25 6 301
1988210N14251 1988 38 EP MM EMILIA 1988-07-27 21:00:00 TS 14.1486 -109.251 main 745 735 P_________P___ EP051988 14.1476 -109.252 TD 27 1011 -1 14.1518 -109.247 1 27 6 302
1988210N14251 1988 38 EP MM EMILIA 1988-07-28 00:00:00 TS 14.3000 -109.500 30 1010 hurdat_epa main 742 741 O_________O___ hurdat_epa EP051988 14.3000 -109.500 TD 30 1010 -1 14.3000 -109.500 1 30 6 302
1988210N14251 1988 38 EP MM EMILIA 1988-07-28 03:00:00 TS 14.4535 -109.747 main 740 740 P_________P___ EP051988 14.4574 -109.743 TD 30 1009 -1 14.4416 -109.762 1 30 6 301
1988210N14251 1988 38 EP MM EMILIA 1988-07-28 06:00:00 TS 14.5934 -110.008 30 1009 hurdat_epa main 755 755 O_________P___ hurdat_epa EP051988 14.6000 -110.000 TD 30 1009 -1 14.5738 -110.033 1 30 6 295
1988210N14251 1988 38 EP MM EMILIA 1988-07-28 09:00:00 TS 14.7041 -110.298 main 770 770 P_________P___ EP051988 14.7075 -110.293 TD 30 1009 -1 14.6941 -110.313 1 30 6 290
1988210N14251 1988 38 EP MM EMILIA 1988-07-28 12:00:00 TS 14.8000 -110.600 30 1009 hurdat_epa main 785 785 O_________O___ hurdat_epa EP051988 14.8000 -110.600 TD 30 1009 -1 14.8000 -110.600 1 30 6 289
1988210N14251 1988 38 EP MM EMILIA 1988-07-28 15:00:00 TS 14.9059 -110.892 main 801 801 P_________P___ EP051988 14.9075 -110.900 TD 30 1009 -1 14.9012 -110.869 1 30 6 289
1988210N14251 1988 38 EP MM EMILIA 1988-07-28 18:00:00 TS 14.9967 -111.187 30 1009 hurdat_epa main 817 817 O_________P___ hurdat_epa EP051988 15.0000 -111.200 TD 30 1009 -1 14.9870 -111.148 1 30 6 286
1988210N14251 1988 38 EP MM EMILIA 1988-07-28 21:00:00 TS 15.0622 -111.471 main 835 835 P_________P___ EP051988 15.0649 -111.478 TD 30 1009 -1 15.0543 -111.453 1 30 6 280
1988210N14251 1988 38 EP MM EMILIA 1988-07-29 00:00:00 TS 15.1000 -111.800 30 1009 hurdat_epa main 860 860 O_________O___ hurdat_epa EP051988 15.1000 -111.800 TD 30 1009 -1 15.1000 -111.800 1 30 7 274
1988210N14251 1988 38 EP MM EMILIA 1988-07-29 03:00:00 TS 15.1101 -112.223 main 894 894 P_________P___ EP051988 15.1075 -112.228 TD 30 1009 -1 15.1177 -112.211 1 31 9 270
1988210N14251 1988 38 EP MM EMILIA 1988-07-29 06:00:00 TS 15.1038 -112.691 30 1009 hurdat_epa main 917 917 O_________P___ hurdat_epa EP051988 15.1000 -112.700 TD 30 1009 -1 15.1152 -112.663 1 32 9 269
1988210N14251 1988 38 EP MM EMILIA 1988-07-29 09:00:00 TS 15.0956 -113.151 main 935 935 P_________P___ EP051988 15.0925 -113.158 TD 32 1008 -1 15.1051 -113.133 1 33 9 270
1988210N14251 1988 38 EP MM EMILIA 1988-07-29 12:00:00 TS 15.1000 -113.600 35 1007 hurdat_epa main 950 950 O_________O___ hurdat_epa EP051988 15.1000 -113.600 TS 35 1007 0 15.1000 -113.600 2 35 8 273
1988210N14251 1988 38 EP MM EMILIA 1988-07-29 15:00:00 TS 15.1408 -114.009 main 968 962 P_________P___ EP051988 15.1498 -114.000 TS 37 1005 0 15.1135 -114.036 2 38 8 276
1988210N14251 1988 38 EP MM EMILIA 1988-07-29 18:00:00 TS 15.1837 -114.416 40 1003 hurdat_epa main 977 977 O_________P___ hurdat_epa EP051988 15.2000 -114.400 TS 40 1003 0 15.1347 -114.465 2 42 8 274
1988210N14251 1988 38 EP MM EMILIA 1988-07-29 21:00:00 TS 15.1965 -114.859 main 1003 1003 P_________P___ EP051988 15.2075 -114.850 TS 45 1000 0 15.1635 -114.886 2 46 9 271
1988210N14251 1988 38 EP MM EMILIA 1988-07-30 00:00:00 TS 15.2000 -115.300 50 998 hurdat_epa main 1025 1025 O_________O___ hurdat_epa EP051988 15.2000 -115.300 TS 50 998 0 15.2000 -115.300 2 50 8 270
1988210N14251 1988 38 EP MM EMILIA 1988-07-30 03:00:00 TS 15.1952 -115.709 main 1048 1048 P_________P___ EP051988 15.1849 -115.708 TS 52 996 0 15.2263 -115.711 2 52 8 271
1988210N14251 1988 38 EP MM EMILIA 1988-07-30 06:00:00 TS 15.2156 -116.104 55 995 hurdat_epa main 1073 1073 O_________P___ hurdat_epa EP051988 15.2000 -116.100 TS 55 995 0 15.2622 -116.115 2 55 8 277
1988210N14251 1988 38 EP MM EMILIA 1988-07-30 09:00:00 TS 15.2873 -116.503 main 1090 1090 P_________P___ EP051988 15.2774 -116.500 TS 57 993 0 15.3170 -116.512 2 57 8 283
1988210N14251 1988 38 EP MM EMILIA 1988-07-30 12:00:00 TS 15.4000 -116.900 60 992 hurdat_epa main 1108 1108 O_________O___ hurdat_epa EP051988 15.4000 -116.900 TS 60 992 0 15.4000 -116.900 2 60 8 288
1988210N14251 1988 38 EP MM EMILIA 1988-07-30 15:00:00 TS 15.5411 -117.298 main 1127 1119 P_________P___ EP051988 15.5425 -117.308 TS 60 992 0 15.5371 -117.270 2 58 8 292
1988210N14251 1988 38 EP MM EMILIA 1988-07-30 18:00:00 TS 15.6999 -117.684 60 992 hurdat_epa main 1140 1139 O_________P___ hurdat_epa EP051988 15.7000 -117.700 TS 60 992 0 15.6994 -117.635 2 57 8 294
1988210N14251 1988 38 EP MM EMILIA 1988-07-30 21:00:00 TS 15.8585 -118.034 main 1147 1147 P_________P___ EP051988 15.8573 -118.043 TS 57 994 0 15.8621 -118.007 2 56 8 294
1988210N14251 1988 38 EP MM EMILIA 1988-07-31 00:00:00 TS 16.0000 -118.400 55 996 hurdat_epa main 1170 1170 O_________O___ hurdat_epa EP051988 16.0000 -118.400 TS 55 996 0 16.0000 -118.400 2 55 8 288
1988210N14251 1988 38 EP MM EMILIA 1988-07-31 03:00:00 TS 16.1126 -118.834 main 1187 1187 P_________P___ EP051988 16.1225 -118.835 TS 50 998 0 16.0828 -118.833 2 51 9 282
1988210N14251 1988 38 EP MM EMILIA 1988-07-31 06:00:00 TS 16.1844 -119.296 45 1000 hurdat_epa main 1210 1210 O_________P___ hurdat_epa EP051988 16.2000 -119.300 TS 45 1000 0 16.1375 -119.285 2 47 9 276
1988210N14251 1988 38 EP MM EMILIA 1988-07-31 09:00:00 TS 16.1989 -119.755 main 1243 1243 P_________P___ EP051988 16.2075 -119.758 TS 42 1002 0 16.1734 -119.745 2 43 9 271
1988210N14251 1988 38 EP MM EMILIA 1988-07-31 12:00:00 TS 16.2000 -120.200 40 1005 hurdat_epa main 1270 1270 O_________O___ hurdat_epa EP051988 16.2000 -120.200 TS 40 1005 0 16.2000 -120.200 2 40 8 273
1988210N14251 1988 38 EP MM EMILIA 1988-07-31 15:00:00 TS 16.2474 -120.611 main 1298 1289 P_________P___ EP051988 16.2498 -120.600 TS 37 1006 0 16.2401 -120.644 2 37 8 277
1988210N14251 1988 38 EP MM EMILIA 1988-07-31 18:00:00 TS 16.2931 -121.020 35 1008 hurdat_epa main 1318 1318 O_________P___ hurdat_epa EP051988 16.3000 -121.000 TS 35 1008 0 16.2723 -121.080 2 35 8 274
1988210N14251 1988 38 EP MM EMILIA 1988-07-31 21:00:00 TS 16.3040 -121.468 main 1355 1355 P_________P___ EP051988 16.3075 -121.458 TS 32 1008 -1 16.2933 -121.501 2 32 8 270
1988210N14251 1988 38 EP MM EMILIA 1988-08-01 00:00:00 TS 16.3000 -121.900 30 1009 hurdat_epa main 1385 1385 O_________O___ hurdat_epa EP051988 16.3000 -121.900 TD 30 1009 -1 16.3000 -121.900 1 30 8 270
1988210N14251 1988 38 EP MM EMILIA 1988-08-01 03:00:00 TS 16.3099 -122.271 main 1416 1416 P_________P___ EP051988 16.3074 -122.265 TD 30 1009 -1 16.3176 -122.288 1 28 7 270
1988210N14251 1988 38 EP MM EMILIA 1988-08-01 06:00:00 TS 16.3043 -122.613 30 1010 hurdat_epa main 1439 1439 O_________P___ hurdat_epa EP051988 16.3000 -122.600 TD 30 1010 -1 16.3173 -122.652 1 27 7 267
1988210N14251 1988 38 EP MM EMILIA 1988-08-01 09:00:00 TS 16.2752 -122.966 main 1471 1471 P_________P___ EP051988 16.2725 -122.957 TD 27 1010 -1 16.2833 -122.991 1 26 7 261
1988210N14251 1988 38 EP MM EMILIA 1988-08-01 12:00:00 TS 16.2000 -123.300 25 1011 hurdat_epa main 1502 1502 O_________O___ hurdat_epa EP051988 16.2000 -123.300 TD 25 1011 -1 16.2000 -123.300 1 25 7 252
1988210N14251 1988 38 EP MM EMILIA 1988-08-01 15:00:00 TS 16.0775 -123.610 main 1533 1533 P_________P___ EP051988 16.0800 -123.623 TD 25 1011 -1 16.0703 -123.571 1 25 6 242
1988210N14251 1988 38 EP MM EMILIA 1988-08-01 18:00:00 TS 15.8974 -123.879 25 1011 hurdat_epa main 1572 1572 O_________P___ hurdat_epa EP051988 15.9000 -123.900 TD 25 1011 -1 15.8895 -123.815 1 25 6 229
1988210N14251 1988 38 EP MM EMILIA 1988-08-01 21:00:00 TS 15.6759 -124.088 main 1603 1603 P_________P___ EP051988 15.6799 -124.100 TD 25 1011 -1 15.6640 -124.052 1 25 6 219
1988210N14251 1988 38 EP MM EMILIA 1988-08-02 00:00:00 TS 15.4000 -124.300 25 1012 hurdat_epa main 1641 1641 O_________O___ hurdat_epa EP051988 15.4000 -124.300 TD 25 1012 -1 15.4000 -124.300 1 25 8 219
1988210N14251 1988 38 EP MM EMILIA 1988-08-02 03:00:00 TS 15.0718 -124.588 main 1688 1688 P_________P___ EP051988 15.0575 -124.585 TD 25 1012 -1 15.1147 -124.598 1 25 9 221
1988210N14251 1988 38 EP MM EMILIA 1988-08-02 06:00:00 TS 14.7236 -124.902 25 1012 hurdat_epa main 1742 1742 O_________P___ hurdat_epa EP051988 14.7000 -124.900 TD 25 1012 -1 14.7944 -124.907 1 25 9 222
1988210N14251 1988 38 EP MM EMILIA 1988-08-02 09:00:00 TS 14.4130 -125.209 main 1788 1788 P_________P___ EP051988 14.4000 -125.207 TD 25 1012 -1 14.4519 -125.213 1 25 9 223
1988210N14251 1988 38 EP MM EMILIA 1988-08-02 12:00:00 TS 14.1000 -125.500 25 1012 hurdat_epa main 1835 1835 O_________O___ hurdat_epa EP051988 14.1000 -125.500 TD 25 1012 -1 14.1000 -125.500 1 25 8 219
1988210N14251 1988 38 EP MM EMILIA 1988-08-02 15:00:00 TS 13.7592 -125.760 main 1881 1881 P_________P___ EP051988 13.7625 -125.760 TD 22 1012 -1 13.7492 -125.759 1 22 9 215
1988210N14251 1988 38 EP MM EMILIA 1988-08-02 18:00:00 TS 13.4000 -126.000 20 1013 hurdat_epa main 1928 O_________O___ hurdat_epa EP051988 13.4000 -126.000 TD 20 1013 -1 13.4000 -126.000 1 20 9 213

IBTrACS Databaseについて

本データベースは、米国NOAAが公開する1842年以降の世界の熱帯低気圧のベストトラックデータアーカイブInternational Best Track Archive for Climate Stewardship (IBTrACS)を、ウェブで閲覧しやすい形式に変換したものです。

最終更新日:2021-12-08